createdAt,value
2023-03-05T00:01:10.159Z,98442.77
2023-03-05T00:04:03.034Z,98439.23
2023-03-05T00:06:55.599Z,98442.09
2023-03-05T00:09:47.589Z,98442.07
2023-03-05T00:12:39.631Z,98447.94
2023-03-05T00:15:31.690Z,98452.73
2023-03-05T00:18:24.625Z,98445.15
2023-03-05T00:21:25.150Z,98438.10
2023-03-05T00:24:19.184Z,98435.17
2023-03-05T00:27:11.232Z,98434.63
2023-03-05T00:30:03.288Z,98431.36
2023-03-05T00:32:55.307Z,98433.32
2023-03-05T00:35:47.844Z,98426.31
2023-03-05T00:38:39.981Z,98422.87
2023-03-05T00:41:32.024Z,98422.72
2023-03-05T00:44:24.157Z,98416.64
2023-03-05T00:47:18.341Z,98412.47
2023-03-05T00:50:10.126Z,98411.36
2023-03-05T00:53:02.092Z,98413.41
2023-03-05T00:55:54.130Z,98407.44
2023-03-05T00:58:46.328Z,98406.50
2023-03-05T01:01:38.314Z,98403.13
2023-03-05T01:04:30.231Z,98397.02
2023-03-05T01:07:22.257Z,98399.42
2023-03-05T01:10:15.188Z,98398.96
2023-03-05T01:13:07.184Z,98395.69
2023-03-05T01:15:59.197Z,98391.58
2023-03-05T01:18:51.192Z,98387.80
2023-03-05T01:21:43.479Z,98382.29
2023-03-05T01:24:35.444Z,98385.89
2023-03-05T01:27:27.563Z,98383.26
2023-03-05T01:30:19.677Z,98383.48
2023-03-05T01:33:11.617Z,98385.46
2023-03-05T01:36:03.651Z,98383.41
2023-03-05T01:38:55.637Z,98379.20
2023-03-05T01:41:47.658Z,98375.98
2023-03-05T01:44:39.667Z,98379.29
2023-03-05T01:47:32.337Z,98376.38
2023-03-05T01:50:27.387Z,98378.41
2023-03-05T01:53:19.518Z,98374.26
2023-03-05T01:56:11.874Z,98371.86
2023-03-05T01:59:04.749Z,98371.09
2023-03-05T02:01:59.301Z,98372.48
2023-03-05T02:04:55.902Z,98371.23
2023-03-05T02:07:48.542Z,98372.95
2023-03-05T02:10:43.331Z,98365.66
2023-03-05T02:13:38.615Z,98362.92
2023-03-05T02:16:13.238Z,98361.98
2023-03-05T02:19:07.016Z,98359.48
2023-03-05T02:21:58.953Z,98355.80
2023-03-05T02:24:51.693Z,98353.73
2023-03-05T02:27:47.996Z,98349.42
2023-03-05T02:30:39.951Z,98347.66
2023-03-05T02:33:31.944Z,98340.70
2023-03-05T02:36:24.866Z,98345.40
2023-03-05T02:39:16.927Z,98345.99
2023-03-05T02:42:09.858Z,98340.02
2023-03-05T02:45:02.460Z,98337.77
2023-03-05T02:47:55.206Z,98339.99
2023-03-05T02:50:48.321Z,98341.30
2023-03-05T02:53:40.359Z,98340.73
2023-03-05T02:56:32.397Z,98345.80
2023-03-05T02:59:24.425Z,98345.42
2023-03-05T03:02:17.022Z,98344.52
2023-03-05T03:05:10.629Z,98346.80
2023-03-05T03:08:02.587Z,98346.52
2023-03-05T03:10:56.459Z,98345.66
2023-03-05T03:13:48.468Z,98337.64
2023-03-05T03:16:40.645Z,98328.61
2023-03-05T03:19:32.709Z,98328.02
2023-03-05T03:22:24.680Z,98324.08
2023-03-05T03:25:18.691Z,98326.27
2023-03-05T03:28:10.644Z,98327.77
2023-03-05T03:31:03.140Z,98327.61
2023-03-05T03:33:55.155Z,98327.95
2023-03-05T03:36:49.055Z,98326.45
2023-03-05T03:39:41.161Z,98321.77
2023-03-05T03:42:33.156Z,98321.17
2023-03-05T03:45:25.223Z,98321.90
2023-03-05T03:48:17.190Z,98320.00
2023-03-05T03:51:10.467Z,98317.77
2023-03-05T03:54:02.938Z,98317.70
2023-03-05T03:56:55.043Z,98316.77
2023-03-05T03:59:47.224Z,98311.98
2023-03-05T04:02:39.597Z,98313.96
2023-03-05T04:05:31.675Z,98307.41
2023-03-05T04:08:23.640Z,98304.09
2023-03-05T04:11:15.980Z,98297.45
2023-03-05T04:14:08.071Z,98295.12
2023-03-05T04:17:00.045Z,98295.95
2023-03-05T04:19:52.091Z,98298.51
2023-03-05T04:22:44.093Z,98290.13
2023-03-05T04:25:36.182Z,98286.09
2023-03-05T04:28:28.506Z,98279.84
2023-03-05T04:31:20.951Z,98275.16
2023-03-05T04:34:12.941Z,98273.66
2023-03-05T04:37:04.941Z,98266.27
2023-03-05T04:39:56.992Z,98267.70
2023-03-05T04:42:48.956Z,98264.80
2023-03-05T04:45:43.708Z,98258.16
2023-03-05T04:48:35.765Z,98256.17
2023-03-05T04:51:27.743Z,98256.36
2023-03-05T04:54:19.826Z,98250.85
2023-03-05T04:57:11.996Z,98255.43
2023-03-05T05:00:06.837Z,98264.52
2023-03-05T05:02:58.874Z,98273.35
2023-03-05T05:05:56.933Z,98276.05
2023-03-05T05:08:48.906Z,98275.73
2023-03-05T05:11:41.783Z,98273.19
2023-03-05T05:14:34.520Z,98272.86
2023-03-05T05:17:26.591Z,98278.55
2023-03-05T05:20:20.055Z,98278.15
2023-03-05T05:23:12.245Z,98285.48
2023-03-05T05:26:06.545Z,98282.70
2023-03-05T05:28:58.551Z,98276.79
2023-03-05T05:31:50.657Z,98277.52
2023-03-05T05:34:42.730Z,98276.19
2023-03-05T05:37:34.760Z,98272.98
2023-03-05T05:40:26.942Z,98264.16
2023-03-05T05:43:18.975Z,98267.13
2023-03-05T05:46:14.572Z,98266.27
2023-03-05T05:49:06.612Z,98262.98
2023-03-05T05:51:59.380Z,98264.30
2023-03-05T05:54:51.478Z,98269.54
2023-03-05T05:57:43.441Z,98273.84
2023-03-05T06:00:35.496Z,98271.27
2023-03-05T06:03:27.752Z,98273.63
2023-03-05T06:06:22.009Z,98268.53
2023-03-05T06:09:12.526Z,98268.16
2023-03-05T06:12:04.960Z,98266.27
2023-03-05T06:14:57.085Z,98261.54
2023-03-05T06:17:49.140Z,98260.35
2023-03-05T06:20:31.505Z,98257.41
2023-03-05T06:23:23.570Z,98257.23
2023-03-05T06:26:17.955Z,98255.10
2023-03-05T06:29:09.958Z,98252.30
2023-03-05T06:31:44.633Z,98246.80
2023-03-05T06:34:36.653Z,98246.38
2023-03-05T06:37:28.756Z,98243.61
2023-03-05T06:40:21.041Z,98238.56
2023-03-05T06:43:13.313Z,98241.79
2023-03-05T06:46:06.469Z,98240.75
2023-03-05T06:49:00.669Z,98236.00
2023-03-05T06:51:52.733Z,98237.63
2023-03-05T06:54:44.927Z,98237.83
2023-03-05T06:57:37.301Z,98237.30
2023-03-05T07:00:14.716Z,98238.25
2023-03-05T07:03:06.770Z,98234.72
2023-03-05T07:05:58.817Z,98232.88
2023-03-05T07:08:51.395Z,98221.87
2023-03-05T07:11:43.491Z,98219.48
2023-03-05T07:14:18.516Z,98218.93
2023-03-05T07:17:10.937Z,98218.39
2023-03-05T07:20:04.311Z,98221.86
2023-03-05T07:22:56.359Z,98218.60
2023-03-05T07:25:48.447Z,98218.11
2023-03-05T07:28:40.901Z,98214.58
2023-03-05T07:31:19.245Z,98210.31
2023-03-05T07:34:12.338Z,98206.10
2023-03-05T07:37:04.396Z,98206.91
2023-03-05T07:39:56.478Z,98192.80
2023-03-05T07:42:48.548Z,98180.95
2023-03-05T07:45:43.316Z,98185.83
2023-03-05T07:48:35.400Z,98187.63
2023-03-05T07:51:29.228Z,98188.90
2023-03-05T07:54:21.312Z,98196.61
2023-03-05T07:56:56.863Z,98190.79
2023-03-05T07:59:48.968Z,98191.91
2023-03-05T08:02:41.260Z,98196.92
2023-03-05T08:05:33.422Z,98188.33
2023-03-05T08:08:25.526Z,98187.31
2023-03-05T08:11:18.437Z,98187.19
2023-03-05T08:14:10.800Z,98185.88
2023-03-05T08:17:02.880Z,98185.14
2023-03-05T08:19:57.641Z,98176.98
2023-03-05T08:22:49.937Z,98172.48
2023-03-05T08:25:42.027Z,98172.75
2023-03-05T08:28:34.505Z,98167.71
2023-03-05T08:31:30.133Z,98169.41
2023-03-05T08:34:22.462Z,98172.05
2023-03-05T08:37:14.500Z,98171.08
2023-03-05T08:40:07.776Z,98171.67
2023-03-05T08:42:59.954Z,98168.73
2023-03-05T08:45:53.530Z,98166.56
2023-03-05T08:48:45.822Z,98161.33
2023-03-05T08:51:37.844Z,98154.15
2023-03-05T08:54:29.875Z,98145.50
2023-03-05T08:57:21.791Z,98149.55
2023-03-05T09:00:15.900Z,98143.18
2023-03-05T09:03:07.910Z,98141.89
2023-03-05T09:06:03.378Z,98136.30
2023-03-05T09:08:55.781Z,98132.14
2023-03-05T09:11:47.822Z,98135.06
2023-03-05T09:14:39.882Z,98134.84
2023-03-05T09:17:31.891Z,98132.31
2023-03-05T09:20:24.132Z,98129.11
2023-03-05T09:23:06.436Z,98125.67
2023-03-05T09:25:58.406Z,98130.73
2023-03-05T09:28:50.849Z,98128.73
2023-03-05T09:31:43.999Z,98127.98
2023-03-05T09:34:36.017Z,98129.77
2023-03-05T09:37:29.325Z,98136.46
2023-03-05T09:40:23.034Z,98131.48
2023-03-05T09:43:25.080Z,98131.25
2023-03-05T09:46:11.737Z,98128.41
2023-03-05T09:48:56.367Z,98128.60
2023-03-05T09:51:51.721Z,98134.26
2023-03-05T09:54:48.156Z,98131.27
2023-03-05T09:57:45.668Z,98136.98
2023-03-05T10:00:42.540Z,98137.13
2023-03-05T10:03:53.204Z,98134.70
2023-03-05T10:06:53.528Z,98132.68
2023-03-05T10:09:50.536Z,98131.87
2023-03-05T10:12:45.263Z,98130.73
2023-03-05T10:15:43.589Z,98131.80
2023-03-05T10:18:42.457Z,98129.98
2023-03-05T10:21:41.208Z,98125.96
2023-03-05T10:24:51.082Z,98123.61
2023-03-05T10:27:54.354Z,98120.07
2023-03-05T10:31:03.341Z,98115.51
2023-03-05T10:33:52.629Z,98115.00
2023-03-05T10:36:57.137Z,98109.84
2023-03-05T10:40:00.241Z,98102.80
2023-03-05T10:42:51.531Z,98097.52
2023-03-05T10:45:47.335Z,98093.21
2023-03-05T10:48:43.766Z,98087.14
2023-03-05T10:51:40.483Z,98084.66
2023-03-05T10:54:21.134Z,98077.05
2023-03-05T10:57:20.532Z,98075.41
2023-03-05T11:00:21.442Z,98076.33
2023-03-05T11:03:13.414Z,98073.94
2023-03-05T11:06:06.232Z,98074.79
2023-03-05T11:09:15.804Z,98068.27
2023-03-05T11:12:18.243Z,98063.12
2023-03-05T11:15:27.613Z,98060.38
2023-03-05T11:18:24.103Z,98058.48
2023-03-05T11:21:27.580Z,98054.72
2023-03-05T11:24:13.806Z,98051.69
2023-03-05T11:27:26.978Z,98050.13
2023-03-05T11:30:30.015Z,98047.35
2023-03-05T11:33:23.924Z,98044.46
2023-03-05T11:36:26.065Z,98049.51
2023-03-05T11:39:22.376Z,98037.39
2023-03-05T11:42:19.313Z,98038.02
2023-03-05T11:45:18.228Z,98030.70
2023-03-05T11:48:14.074Z,98030.52
2023-03-05T11:51:18.808Z,98029.16
2023-03-05T11:54:07.875Z,98019.09
2023-03-05T11:57:01.619Z,98022.50
2023-03-05T11:59:56.640Z,98017.86
2023-03-05T12:02:53.069Z,98017.63
2023-03-05T12:05:48.842Z,98021.02
2023-03-05T12:08:45.561Z,98022.28
2023-03-05T12:11:39.480Z,98022.05
2023-03-05T12:14:37.977Z,98017.23
2023-03-05T12:17:34.485Z,98015.44
2023-03-05T12:20:37.347Z,98013.31
2023-03-05T12:23:31.329Z,98010.68
2023-03-05T12:26:43.018Z,98008.32
2023-03-05T12:29:42.021Z,98004.74
2023-03-05T12:33:03.354Z,98001.69
2023-03-05T12:35:55.862Z,98000.50
2023-03-05T12:38:48.222Z,98002.20
2023-03-05T12:41:40.591Z,97996.96
2023-03-05T12:44:32.745Z,97979.70
2023-03-05T12:47:24.896Z,97974.63
2023-03-05T12:51:00.496Z,97979.33
2023-03-05T12:53:39.928Z,97976.31
2023-03-05T12:56:25.099Z,97979.67
2023-03-05T12:59:07.999Z,97982.66
2023-03-05T13:02:04.568Z,97980.39
2023-03-05T13:05:02.102Z,97984.92
2023-03-05T13:07:54.356Z,97981.37
2023-03-05T13:10:37.185Z,97977.45
2023-03-05T13:13:15.901Z,97982.83
2023-03-05T13:16:17.500Z,97983.83
2023-03-05T13:18:50.200Z,97985.29
2023-03-05T13:21:42.309Z,97980.86
2023-03-05T13:24:20.690Z,97982.10
2023-03-05T13:27:25.684Z,97979.90
2023-03-05T13:30:30.127Z,97986.71
2023-03-05T13:33:26.959Z,97985.06
2023-03-05T13:36:02.343Z,97990.95
2023-03-05T13:38:55.457Z,97994.36
2023-03-05T13:41:58.997Z,98000.83
2023-03-05T13:44:57.871Z,98006.95
2023-03-05T13:47:58.183Z,98000.78
2023-03-05T13:50:57.157Z,97993.45
2023-03-05T13:53:49.581Z,97993.55
2023-03-05T13:56:51.408Z,97990.24
2023-03-05T13:59:38.886Z,97985.29
2023-03-05T14:02:33.472Z,97985.42
2023-03-05T14:05:25.603Z,97981.31
2023-03-05T14:07:59.999Z,97977.95
2023-03-05T14:10:52.726Z,97968.31
2023-03-05T14:13:28.055Z,97965.23
2023-03-05T14:16:11.121Z,97963.80
2023-03-05T14:19:07.140Z,97957.88
2023-03-05T14:21:59.160Z,97954.66
2023-03-05T14:24:41.410Z,97948.52
2023-03-05T14:27:36.056Z,97944.73
2023-03-05T14:30:30.855Z,97938.92
2023-03-05T14:33:25.974Z,97937.23
2023-03-05T14:36:04.050Z,97932.34
2023-03-05T14:38:44.144Z,97931.63
2023-03-05T14:41:39.499Z,97936.60
2023-03-05T14:44:31.498Z,97934.98
2023-03-05T14:47:07.090Z,97930.16
2023-03-05T14:49:59.117Z,97930.59
2023-03-05T14:52:53.017Z,97931.83
2023-03-05T14:55:48.800Z,97931.80
2023-03-05T14:58:40.973Z,97927.73
2023-03-05T15:01:21.881Z,97923.77
2023-03-05T15:04:15.560Z,97917.95
2023-03-05T15:07:08.962Z,97919.60
2023-03-05T15:09:50.900Z,97918.57
2023-03-05T15:12:44.091Z,97916.91
2023-03-05T15:15:36.220Z,97913.52
2023-03-05T15:18:28.362Z,97910.75
2023-03-05T15:21:20.402Z,97907.18
2023-03-05T15:24:14.714Z,97904.41
2023-03-05T15:27:06.176Z,97899.82
2023-03-05T15:29:59.035Z,97898.88
2023-03-05T15:32:51.411Z,97899.09
2023-03-05T15:35:44.150Z,97896.30
2023-03-05T15:38:38.788Z,97888.35
2023-03-05T15:41:30.971Z,97890.06
2023-03-05T15:44:23.619Z,97895.19
2023-03-05T15:47:15.629Z,97896.98
2023-03-05T15:50:09.544Z,97895.58
2023-03-05T15:52:44.724Z,97900.46
2023-03-05T15:55:40.077Z,97897.25
2023-03-05T15:58:32.145Z,97890.80
2023-03-05T16:01:24.373Z,97897.01
2023-03-05T16:04:17.910Z,97901.45
2023-03-05T16:07:10.729Z,97905.40
2023-03-05T16:09:54.634Z,97906.02
2023-03-05T16:12:48.384Z,97910.92
2023-03-05T16:15:42.082Z,97908.09
2023-03-05T16:18:37.501Z,97909.10
2023-03-05T16:21:29.618Z,97912.29
2023-03-05T16:24:21.764Z,97916.77
2023-03-05T16:27:14.087Z,97914.52
2023-03-05T16:30:07.302Z,97920.89
2023-03-05T16:32:59.231Z,97918.88
2023-03-05T16:35:51.350Z,97922.75
2023-03-05T16:38:43.407Z,97927.52
2023-03-05T16:41:35.748Z,97931.18
2023-03-05T16:44:11.008Z,97934.75
2023-03-05T16:47:03.146Z,97935.41
2023-03-05T16:49:55.315Z,97937.22
2023-03-05T16:52:47.886Z,97939.72
2023-03-05T16:55:40.321Z,97955.36
2023-03-05T16:58:33.646Z,97958.86
2023-03-05T17:01:26.921Z,97968.46
2023-03-05T17:04:19.627Z,97969.95
2023-03-05T17:07:12.494Z,97974.38
2023-03-05T17:10:04.652Z,97974.48
2023-03-05T17:12:56.796Z,97978.43
2023-03-05T17:15:31.312Z,97978.30
2023-03-05T17:18:23.318Z,97976.74
2023-03-05T17:21:16.198Z,97975.61
2023-03-05T17:24:08.723Z,97973.31
2023-03-05T17:27:01.220Z,97971.48
2023-03-05T17:29:53.190Z,97966.48
2023-03-05T17:32:45.241Z,97967.64
2023-03-05T17:35:37.571Z,97975.09
2023-03-05T17:38:30.305Z,97973.63
2023-03-05T17:41:22.898Z,97974.20
2023-03-05T17:44:15.381Z,97976.27
2023-03-05T17:47:07.995Z,97968.85
2023-03-05T17:50:00.755Z,97968.38
2023-03-05T17:52:53.000Z,97965.56
2023-03-05T17:55:45.244Z,97963.31
2023-03-05T17:58:38.190Z,97959.33
2023-03-05T18:01:32.563Z,97953.14
2023-03-05T18:04:24.769Z,97953.63
2023-03-05T18:07:16.971Z,97948.18
2023-03-05T18:10:11.229Z,97943.45
2023-03-05T18:13:03.354Z,97946.33
2023-03-05T18:15:58.430Z,97945.00
2023-03-05T18:18:40.946Z,97946.86
2023-03-05T18:21:33.125Z,97939.83
2023-03-05T18:24:25.463Z,97941.91
2023-03-05T18:27:17.490Z,97944.23
2023-03-05T18:30:12.015Z,97942.16
2023-03-05T18:33:04.670Z,97943.42
2023-03-05T18:35:58.249Z,97946.59
2023-03-05T18:38:50.317Z,97950.67
2023-03-05T18:41:42.747Z,97946.88
2023-03-05T18:44:34.872Z,97949.06
2023-03-05T18:47:28.000Z,97949.45
2023-03-05T18:50:21.406Z,97952.23
2023-03-05T18:53:14.894Z,97953.16
2023-03-05T18:56:11.181Z,97945.85
2023-03-05T18:59:03.821Z,97950.59
2023-03-05T19:01:55.949Z,97946.52
2023-03-05T19:04:47.970Z,97948.36
2023-03-05T19:07:40.187Z,97950.31
2023-03-05T19:10:34.359Z,97948.42
2023-03-05T19:13:40.827Z,97947.06
2023-03-05T19:16:40.412Z,97950.23
2023-03-05T19:19:32.537Z,97950.77
2023-03-05T19:22:26.551Z,97957.48
2023-03-05T19:25:19.130Z,97955.83
2023-03-05T19:28:11.323Z,97953.73
2023-03-05T19:31:03.554Z,97948.48
2023-03-05T19:33:56.440Z,97947.41
2023-03-05T19:36:49.221Z,97950.42
2023-03-05T19:39:41.671Z,97945.89
2023-03-05T19:42:35.756Z,97946.94
2023-03-05T19:45:18.946Z,97948.35
2023-03-05T19:48:11.329Z,97944.33
2023-03-05T19:51:03.996Z,97941.09
2023-03-05T19:53:56.459Z,97933.89
2023-03-05T19:56:50.006Z,97936.48
2023-03-05T19:59:43.996Z,97942.36
2023-03-05T20:02:36.146Z,97946.89
2023-03-05T20:05:28.365Z,97943.37
2023-03-05T20:08:20.359Z,97944.70
2023-03-05T20:11:14.664Z,97942.25
2023-03-05T20:14:06.933Z,97941.66
2023-03-05T20:16:58.954Z,97941.52
2023-03-05T20:19:51.012Z,97942.86
2023-03-05T20:22:45.106Z,97943.99
2023-03-05T20:25:38.675Z,97940.08
2023-03-05T20:28:30.896Z,97930.17
2023-03-05T20:31:25.451Z,97930.84
2023-03-05T20:34:20.102Z,97932.13
2023-03-05T20:37:12.102Z,97926.64
2023-03-05T20:40:04.088Z,97920.07
2023-03-05T20:42:56.122Z,97922.61
2023-03-05T20:45:48.388Z,97921.67
2023-03-05T20:48:40.391Z,97921.69
2023-03-05T20:51:35.022Z,97917.84
2023-03-05T20:54:27.406Z,97915.15
2023-03-05T20:57:02.112Z,97916.98
2023-03-05T20:59:54.108Z,97919.36
2023-03-05T21:02:46.321Z,97914.42
2023-03-05T21:05:39.214Z,97911.05
2023-03-05T21:08:14.345Z,97904.16
2023-03-05T21:11:09.988Z,97901.46
2023-03-05T21:14:02.100Z,97897.21
2023-03-05T21:16:54.212Z,97892.95
2023-03-05T21:19:46.241Z,97888.95
2023-03-05T21:22:38.474Z,97888.65
2023-03-05T21:25:32.567Z,97884.77
2023-03-05T21:28:23.011Z,97885.42
2023-03-05T21:31:18.372Z,97876.59
2023-03-05T21:34:10.441Z,97872.78
2023-03-05T21:37:02.543Z,97879.50
2023-03-05T21:39:54.603Z,97876.59
2023-03-05T21:42:47.169Z,97876.16
2023-03-05T21:45:40.427Z,97871.68
2023-03-05T21:48:33.070Z,97875.50
2023-03-05T21:52:09.285Z,97872.08
2023-03-05T21:55:01.437Z,97875.54
2023-03-05T21:57:53.413Z,97869.88
2023-03-05T22:00:45.465Z,97865.88
2023-03-05T22:03:37.549Z,97863.92
2023-03-05T22:06:29.708Z,97853.52
2023-03-05T22:09:04.749Z,97849.23
2023-03-05T22:11:56.752Z,97848.58
2023-03-05T22:14:48.712Z,97845.56
2023-03-05T22:17:40.695Z,97844.19
2023-03-05T22:20:14.871Z,97845.72
2023-03-05T22:23:06.995Z,97842.66
2023-03-05T22:26:00.627Z,97838.08
2023-03-05T22:28:52.846Z,97839.27
2023-03-05T22:31:45.503Z,97833.88
2023-03-05T22:34:37.959Z,97837.17
2023-03-05T22:37:31.117Z,97839.83
2023-03-05T22:40:25.150Z,97838.86
2023-03-05T22:43:16.449Z,97845.62
2023-03-05T22:46:16.249Z,97845.05
2023-03-05T22:49:08.348Z,97840.11
2023-03-05T22:52:00.303Z,97846.38
2023-03-05T22:54:54.388Z,97839.17
2023-03-05T22:57:48.526Z,97846.11
2023-03-05T23:00:41.250Z,97846.23
2023-03-05T23:03:33.274Z,97848.37
2023-03-05T23:06:25.639Z,97847.77
2023-03-05T23:09:17.603Z,97843.98
2023-03-05T23:11:58.361Z,97843.47
2023-03-05T23:14:50.384Z,97840.16
2023-03-05T23:17:42.776Z,97832.50
2023-03-05T23:20:37.235Z,97830.49
2023-03-05T23:23:17.968Z,97834.71
2023-03-05T23:26:09.944Z,97833.88
2023-03-05T23:29:01.995Z,97839.35
2023-03-05T23:31:33.841Z,97841.02
2023-03-05T23:34:26.586Z,97836.14
2023-03-05T23:37:07.607Z,97838.33
2023-03-05T23:40:00.448Z,97835.34
2023-03-05T23:42:52.978Z,97833.44
2023-03-05T23:45:47.912Z,97835.58
2023-03-05T23:48:40.005Z,97839.56
2023-03-05T23:51:32.244Z,97839.94
2023-03-05T23:54:24.185Z,97839.91
2023-03-05T23:57:16.195Z,97834.54
